Time;durP1;ratioP1;P1;durP2;ratioP2;P2;SDS_P1;SDS_P2;PMS_P1;PMS_P2;Temp;Humidity;BMP_temperature;BMP_pressure;BME280_temperature;BME280_humidity;BME280_pressure;Samples;Min_cycle;Max_cycle;Signal;HPM_P1;HPM_P2
2021/10/17 00:00:25;;;;;;;16.77;6.45;;;;;;;;;;5091827;28;20274;-56
2021/10/17 00:03:08;;;;;;;19.27;6.93;;;;;;;;;;5093492;28;20139;-56
2021/10/17 00:05:34;;;;;;;15.13;5.22;;;;;;;;;;5092771;28;20537;-56
2021/10/17 00:08:01;;;;;;;15.68;6.78;;;;;;;;;;5092789;28;20040;-56
2021/10/17 00:10:30;;;;;;;19.58;6.60;;;;;;;;;;5094743;28;20044;-56
2021/10/17 00:12:57;;;;;;;19.38;6.55;;;;;;;;;;5093457;28;20083;-56
2021/10/17 00:15:24;;;;;;;21.23;7.38;;;;;;;;;;5092572;28;20051;-57
2021/10/17 00:17:51;;;;;;;19.27;7.55;;;;;;;;;;5092920;28;20450;-56
2021/10/17 00:20:18;;;;;;;19.10;7.10;;;;;;;;;;5092439;28;20060;-56
2021/10/17 00:22:45;;;;;;;20.75;8.52;;;;;;;;;;5092471;28;20040;-56
2021/10/17 00:25:12;;;;;;;15.70;6.18;;;;;;;;;;5094657;28;20039;-56
2021/10/17 00:27:39;;;;;;;22.55;8.07;;;;;;;;;;5092688;28;20054;-56
2021/10/17 00:30:07;;;;;;;20.60;7.70;;;;;;;;;;5090329;28;20048;-56
2021/10/17 00:32:35;;;;;;;18.10;7.03;;;;;;;;;;5092387;28;20066;-56
2021/10/17 00:35:04;;;;;;;19.10;7.80;;;;;;;;;;5092492;28;20059;-56
2021/10/17 00:37:30;;;;;;;16.80;7.15;;;;;;;;;;5092985;28;20048;-56
2021/10/17 00:39:57;;;;;;;23.30;7.88;;;;;;;;;;5090912;28;20130;-56
2021/10/17 00:42:23;;;;;;;18.38;7.82;;;;;;;;;;5091221;28;20063;-56
2021/10/17 00:45:00;;;;;;;21.45;8.75;;;;;;;;;;5091078;28;20483;-56
2021/10/17 00:47:27;;;;;;;19.23;6.93;;;;;;;;;;5091076;28;20605;-56
2021/10/17 00:49:53;;;;;;;19.70;8.02;;;;;;;;;;5089785;28;20044;-56
2021/10/17 00:52:21;;;;;;;19.52;7.43;;;;;;;;;;5092931;28;20047;-56
2021/10/17 00:54:48;;;;;;;18.52;7.75;;;;;;;;;;5092034;28;20075;-56
2021/10/17 00:57:14;;;;;;;20.67;7.90;;;;;;;;;;5092168;28;20141;-56
2021/10/17 00:59:41;;;;;;;21.35;8.07;;;;;;;;;;5092068;28;20123;-56
2021/10/17 01:02:08;;;;;;;16.75;6.68;;;;;;;;;;5091173;28;20071;-56
2021/10/17 01:04:36;;;;;;;23.45;7.18;;;;;;;;;;5093034;28;20069;-56
2021/10/17 01:07:03;;;;;;;18.27;8.68;;;;;;;;;;5091946;28;20076;-56
2021/10/17 01:09:29;;;;;;;17.90;8.02;;;;;;;;;;5090198;28;20600;-56
2021/10/17 01:11:55;;;;;;;28.15;8.07;;;;;;;;;;5090327;28;20118;-56
2021/10/17 01:14:26;;;;;;;26.25;9.00;;;;;;;;;;5090901;28;20040;-56
2021/10/17 01:16:53;;;;;;;16.52;6.68;;;;;;;;;;5090407;28;20071;-56
2021/10/17 01:19:21;;;;;;;17.38;7.65;;;;;;;;;;5092194;28;20458;-56
2021/10/17 01:21:52;;;;;;;18.02;7.68;;;;;;;;;;5089012;28;20118;-55
2021/10/17 01:24:19;;;;;;;27.02;8.32;;;;;;;;;;5088060;28;20145;-56
2021/10/17 01:26:46;;;;;;;18.25;8.30;;;;;;;;;;5091364;28;20043;-56
2021/10/17 01:29:13;;;;;;;27.15;9.45;;;;;;;;;;5091472;28;20040;-56
2021/10/17 01:31:50;;;;;;;22.63;8.60;;;;;;;;;;5090605;28;20075;-56
2021/10/17 01:34:16;;;;;;;19.35;7.90;;;;;;;;;;5091573;28;20127;-56
2021/10/17 01:36:43;;;;;;;23.80;8.07;;;;;;;;;;5088333;28;20059;-56
2021/10/17 01:39:11;;;;;;;23.90;8.63;;;;;;;;;;5090090;28;20055;-56
2021/10/17 01:41:38;;;;;;;20.88;7.28;;;;;;;;;;5089859;28;20101;-56
2021/10/17 01:44:05;;;;;;;25.25;8.35;;;;;;;;;;5090256;28;20071;-56
2021/10/17 01:46:34;;;;;;;22.58;8.73;;;;;;;;;;5091583;28;20040;-56
2021/10/17 01:49:00;;;;;;;19.42;8.10;;;;;;;;;;5091273;28;20048;-56
2021/10/17 01:51:27;;;;;;;25.70;9.18;;;;;;;;;;5090412;28;20055;-56
2021/10/17 01:53:53;;;;;;;24.40;8.32;;;;;;;;;;5088598;28;20077;-56
2021/10/17 01:56:20;;;;;;;17.98;7.75;;;;;;;;;;5089181;28;20487;-56
2021/10/17 01:58:47;;;;;;;23.10;7.60;;;;;;;;;;5090457;28;20116;-56
2021/10/17 02:01:13;;;;;;;20.42;8.25;;;;;;;;;;5091726;28;20525;-56
2021/10/17 02:03:40;;;;;;;18.13;7.65;;;;;;;;;;5090230;28;20492;-56
2021/10/17 02:06:07;;;;;;;20.88;8.85;;;;;;;;;;5088409;28;20117;-56
2021/10/17 02:08:33;;;;;;;14.10;7.80;;;;;;;;;;5089922;28;20044;-56
2021/10/17 02:11:01;;;;;;;16.67;5.95;;;;;;;;;;5088518;28;20040;-56
2021/10/17 02:13:30;;;;;;;18.08;7.47;;;;;;;;;;5091485;28;20143;-56
2021/10/17 02:15:57;;;;;;;22.33;8.55;;;;;;;;;;5091165;28;20491;-56
2021/10/17 02:18:24;;;;;;;24.02;7.93;;;;;;;;;;5089818;28;20505;-56
2021/10/17 02:20:52;;;;;;;13.63;6.00;;;;;;;;;;5089819;28;20078;-56
2021/10/17 02:23:18;;;;;;;27.15;8.45;;;;;;;;;;5089476;28;20047;-55
2021/10/17 02:25:47;;;;;;;17.38;7.43;;;;;;;;;;5090219;28;20051;-56
2021/10/17 02:28:13;;;;;;;19.65;9.65;;;;;;;;;;5091702;28;20071;-55
2021/10/17 02:30:47;;;;;;;18.20;7.50;;;;;;;;;;5089456;28;20080;-56
2021/10/17 02:33:24;;;;;;;18.90;7.65;;;;;;;;;;5089780;28;20492;-56
2021/10/17 02:35:50;;;;;;;21.33;8.07;;;;;;;;;;5089596;28;20396;-56
2021/10/17 02:38:16;;;;;;;23.35;8.95;;;;;;;;;;5089783;28;20055;-56
2021/10/17 02:40:43;;;;;;;16.92;8.50;;;;;;;;;;5089420;28;20051;-56
2021/10/17 02:43:12;;;;;;;16.70;7.20;;;;;;;;;;5091721;28;20047;-56
2021/10/17 02:45:40;;;;;;;22.65;8.80;;;;;;;;;;5089304;28;20044;-56
2021/10/17 02:48:06;;;;;;;18.40;7.95;;;;;;;;;;5089313;28;20086;-56
2021/10/17 02:50:33;;;;;;;19.42;7.90;;;;;;;;;;5089317;28;20511;-56
2021/10/17 02:53:00;;;;;;;17.60;7.50;;;;;;;;;;5089405;28;20460;-56
2021/10/17 02:55:29;;;;;;;18.50;8.63;;;;;;;;;;5091412;28;20098;-56
2021/10/17 02:57:55;;;;;;;17.52;7.80;;;;;;;;;;5086772;28;20052;-56
2021/10/17 03:00:23;;;;;;;17.30;7.72;;;;;;;;;;5083691;28;20062;-56
2021/10/17 03:02:53;;;;;;;15.32;6.10;;;;;;;;;;5089234;28;20072;-56
2021/10/17 03:05:19;;;;;;;20.58;8.73;;;;;;;;;;5089305;28;20559;-56
2021/10/17 03:07:45;;;;;;;21.67;8.48;;;;;;;;;;5089195;28;20055;-56
2021/10/17 03:10:13;;;;;;;21.75;8.85;;;;;;;;;;5091472;28;20058;-56
2021/10/17 03:12:39;;;;;;;23.38;9.27;;;;;;;;;;5090766;28;20044;-56
2021/10/17 03:15:09;;;;;;;21.88;9.90;;;;;;;;;;5091349;28;20043;-56
2021/10/17 03:17:37;;;;;;;21.35;8.77;;;;;;;;;;5092698;28;20044;-56
2021/10/17 03:20:04;;;;;;;22.00;8.13;;;;;;;;;;5091323;28;20063;-56
2021/10/17 03:22:35;;;;;;;30.35;9.50;;;;;;;;;;5093529;28;20032;-56
2021/10/17 03:25:02;;;;;;;20.88;9.27;;;;;;;;;;5091978;28;20126;-56
2021/10/17 03:27:30;;;;;;;27.58;9.07;;;;;;;;;;5092267;28;20054;-56
2021/10/17 03:29:56;;;;;;;23.42;9.85;;;;;;;;;;5092813;28;20043;-55
2021/10/17 03:32:23;;;;;;;27.02;10.20;;;;;;;;;;5093591;28;20117;-56
2021/10/17 03:34:49;;;;;;;23.13;9.00;;;;;;;;;;5092252;28;20788;-56
2021/10/17 03:37:18;;;;;;;25.75;8.40;;;;;;;;;;5094799;28;20044;-56
2021/10/17 03:39:45;;;;;;;21.85;8.30;;;;;;;;;;5093033;28;20079;-55
2021/10/17 03:42:11;;;;;;;17.98;8.73;;;;;;;;;;5092380;28;20083;-56
2021/10/17 03:44:40;;;;;;;21.33;8.30;;;;;;;;;;5091364;28;20131;-56
2021/10/17 03:47:07;;;;;;;20.30;7.38;;;;;;;;;;5092860;28;20085;-56
2021/10/17 03:49:33;;;;;;;21.52;8.20;;;;;;;;;;5094141;28;20055;-56
2021/10/17 03:52:00;;;;;;;15.48;6.97;;;;;;;;;;5093027;28;20063;-55
2021/10/17 03:54:27;;;;;;;20.45;7.32;;;;;;;;;;5090950;28;20472;-56
2021/10/17 03:56:53;;;;;;;16.40;8.32;;;;;;;;;;5091001;28;20044;-56
2021/10/17 03:59:19;;;;;;;19.60;7.25;;;;;;;;;;5092678;28;20051;-56
2021/10/17 04:01:50;;;;;;;22.83;7.47;;;;;;;;;;5092576;28;20076;-55
2021/10/17 04:04:18;;;;;;;15.40;7.63;;;;;;;;;;5094548;28;20086;-56
2021/10/17 04:06:44;;;;;;;16.33;7.53;;;;;;;;;;5092432;28;20131;-56
2021/10/17 04:09:23;;;;;;;17.23;7.03;;;;;;;;;;5090658;28;20131;-57
2021/10/17 04:11:51;;;;;;;22.75;7.90;;;;;;;;;;5091979;28;20501;-56
2021/10/17 04:14:17;;;;;;;21.48;6.63;;;;;;;;;;5093379;28;20040;-56
2021/10/17 04:16:44;;;;;;;20.95;8.02;;;;;;;;;;5092347;28;20060;-56
2021/10/17 04:19:11;;;;;;;21.83;8.88;;;;;;;;;;5094169;28;20048;-56
2021/10/17 04:21:37;;;;;;;20.20;8.27;;;;;;;;;;5092848;28;20040;-56
2021/10/17 04:24:04;;;;;;;26.33;7.50;;;;;;;;;;5089211;28;20069;-56
2021/10/17 04:26:32;;;;;;;17.73;7.07;;;;;;;;;;5091873;28;20541;-56
2021/10/17 04:28:58;;;;;;;13.65;6.57;;;;;;;;;;5092356;28;20400;-56
2021/10/17 04:31:25;;;;;;;17.05;7.63;;;;;;;;;;5094105;28;20052;-56
2021/10/17 04:33:52;;;;;;;20.80;6.43;;;;;;;;;;5090251;28;20059;-56
2021/10/17 04:36:18;;;;;;;21.08;6.63;;;;;;;;;;5091809;28;20632;-56
2021/10/17 04:38:45;;;;;;;25.00;7.13;;;;;;;;;;5090014;28;20078;-56
2021/10/17 04:41:13;;;;;;;29.52;6.88;;;;;;;;;;5091481;28;20402;-56
2021/10/17 04:43:39;;;;;;;21.27;6.38;;;;;;;;;;5092497;28;20500;-56
2021/10/17 04:46:06;;;;;;;19.35;6.57;;;;;;;;;;5093236;28;20093;-56
2021/10/17 04:48:32;;;;;;;17.92;6.97;;;;;;;;;;5091574;28;20114;-56
2021/10/17 04:50:58;;;;;;;13.77;7.03;;;;;;;;;;5089920;28;20063;-56
2021/10/17 04:53:25;;;;;;;16.80;6.13;;;;;;;;;;5092442;28;20109;-56
2021/10/17 04:55:51;;;;;;;12.75;6.05;;;;;;;;;;5091263;28;20526;-56
2021/10/17 04:58:18;;;;;;;15.98;6.93;;;;;;;;;;5093589;28;20071;-56
2021/10/17 05:00:45;;;;;;;12.98;5.47;;;;;;;;;;5089666;28;20071;-56
2021/10/17 05:03:12;;;;;;;12.73;5.53;;;;;;;;;;5090027;28;20044;-56
2021/10/17 05:05:41;;;;;;;17.40;5.32;;;;;;;;;;5091231;28;20495;-56
2021/10/17 05:08:08;;;;;;;14.52;5.45;;;;;;;;;;5090896;28;20129;-56
2021/10/17 05:10:37;;;;;;;15.45;5.90;;;;;;;;;;5092101;28;20040;-56
2021/10/17 05:13:05;;;;;;;15.85;5.40;;;;;;;;;;5090829;28;20076;-56
2021/10/17 05:15:32;;;;;;;15.65;5.60;;;;;;;;;;5091071;28;20068;-56
2021/10/17 05:17:58;;;;;;;9.43;5.55;;;;;;;;;;5090969;28;20044;-56
2021/10/17 05:20:24;;;;;;;23.08;6.15;;;;;;;;;;5091789;28;20063;-56
2021/10/17 05:22:51;;;;;;;18.40;6.07;;;;;;;;;;5090733;28;20090;-56
2021/10/17 05:25:17;;;;;;;10.15;5.55;;;;;;;;;;5092694;28;20051;-56
2021/10/17 05:27:44;;;;;;;15.55;6.07;;;;;;;;;;5091033;28;20048;-56
2021/10/17 05:30:11;;;;;;;18.52;6.68;;;;;;;;;;5091960;28;20052;-56
2021/10/17 05:32:37;;;;;;;12.70;6.13;;;;;;;;;;5090533;28;20483;-56
2021/10/17 05:35:03;;;;;;;14.95;5.70;;;;;;;;;;5090323;28;20083;-55
2021/10/17 05:37:30;;;;;;;15.98;5.05;;;;;;;;;;5092384;28;20102;-56
2021/10/17 05:39:56;;;;;;;13.20;5.68;;;;;;;;;;5120573;27;20506;-56
2021/10/17 05:42:23;;;;;;;12.05;5.82;;;;;;;;;;5089236;28;20072;-56
2021/10/17 05:44:49;;;;;;;14.10;5.95;;;;;;;;;;5090169;28;20129;-56
2021/10/17 05:47:15;;;;;;;14.60;5.45;;;;;;;;;;5090516;28;20062;-56
2021/10/17 05:49:43;;;;;;;16.52;6.28;;;;;;;;;;5091790;28;20078;-56
2021/10/17 05:52:10;;;;;;;16.20;6.30;;;;;;;;;;5092555;28;20059;-56
2021/10/17 05:54:36;;;;;;;14.27;5.72;;;;;;;;;;5091248;28;20044;-56
2021/10/17 05:57:02;;;;;;;14.13;5.72;;;;;;;;;;5090216;28;20044;-56
2021/10/17 05:59:29;;;;;;;12.32;5.50;;;;;;;;;;5088490;28;20488;-56
2021/10/17 06:01:55;;;;;;;17.80;6.50;;;;;;;;;;5090080;28;20040;-56
2021/10/17 06:04:30;;;;;;;14.23;5.45;;;;;;;;;;5091988;28;20047;-55
2021/10/17 06:07:10;;;;;;;13.27;5.43;;;;;;;;;;5086564;28;20115;-56
2021/10/17 06:09:37;;;;;;;11.68;5.25;;;;;;;;;;5086258;28;20567;-56
2021/10/17 06:12:05;;;;;;;11.80;5.22;;;;;;;;;;5090171;28;20051;-56
2021/10/17 06:14:32;;;;;;;14.10;5.18;;;;;;;;;;5089843;28;20075;-56
2021/10/17 06:16:58;;;;;;;15.68;6.30;;;;;;;;;;5091435;28;20506;-56
2021/10/17 06:19:25;;;;;;;17.10;6.30;;;;;;;;;;5087412;28;20048;-56
2021/10/17 06:21:54;;;;;;;13.90;6.25;;;;;;;;;;5089981;28;20048;-56
2021/10/17 06:24:21;;;;;;;15.38;5.47;;;;;;;;;;5089893;28;20044;-56
2021/10/17 06:26:51;;;;;;;10.48;5.35;;;;;;;;;;5089545;28;20495;-56
2021/10/17 06:29:17;;;;;;;14.55;5.93;;;;;;;;;;5088463;28;20083;-56
2021/10/17 06:31:44;;;;;;;13.77;5.80;;;;;;;;;;5089858;28;20058;-56
2021/10/17 06:34:11;;;;;;;15.30;5.93;;;;;;;;;;5091677;28;20431;-56
2021/10/17 06:36:38;;;;;;;12.75;6.38;;;;;;;;;;5089337;28;20068;-56
2021/10/17 06:39:04;;;;;;;15.32;5.93;;;;;;;;;;5089749;28;20051;-55
2021/10/17 06:41:31;;;;;;;14.48;6.60;;;;;;;;;;5089696;28;20047;-56
2021/10/17 06:43:58;;;;;;;20.85;7.13;;;;;;;;;;5072746;28;20496;-56
2021/10/17 06:46:29;;;;;;;17.80;7.68;;;;;;;;;;5087100;28;20055;-56
2021/10/17 06:48:58;;;;;;;21.77;7.07;;;;;;;;;;5089102;28;20083;-55
2021/10/17 06:51:24;;;;;;;18.63;7.80;;;;;;;;;;5089166;28;20135;-56
2021/10/17 06:53:51;;;;;;;22.20;7.38;;;;;;;;;;5089105;28;20503;-56
2021/10/17 06:56:20;;;;;;;19.52;7.38;;;;;;;;;;5087892;28;20507;-55
2021/10/17 06:58:46;;;;;;;14.45;7.10;;;;;;;;;;5090934;28;20056;-56
2021/10/17 07:01:13;;;;;;;17.98;7.18;;;;;;;;;;5090071;28;20044;-55
2021/10/17 07:03:45;;;;;;;15.20;7.00;;;;;;;;;;5089476;28;20440;-56
2021/10/17 07:06:16;;;;;;;20.98;8.02;;;;;;;;;;5089121;28;20044;-56
2021/10/17 07:08:47;;;;;;;17.23;5.97;;;;;;;;;;5088052;28;20082;-56
2021/10/17 07:11:23;;;;;;;17.70;5.80;;;;;;;;;;5089351;28;20064;-56
2021/10/17 07:13:58;;;;;;;;;;;;;;;;;;5073992;28;20080;-56
2021/10/17 07:16:28;;;;;;;14.23;5.20;;;;;;;;;;5090934;28;20306;-56
2021/10/17 07:18:54;;;;;;;16.92;5.47;;;;;;;;;;5087831;28;20105;-56
2021/10/17 07:21:21;;;;;;;15.55;5.38;;;;;;;;;;5088933;28;20043;-56
2021/10/17 07:23:49;;;;;;;19.02;6.20;;;;;;;;;;5071276;28;20051;-56
2021/10/17 07:26:16;;;;;;;11.05;5.45;;;;;;;;;;5089473;28;20040;-56
2021/10/17 07:28:42;;;;;;;13.80;5.60;;;;;;;;;;5090523;28;20518;-56
2021/10/17 07:31:09;;;;;;;13.25;5.45;;;;;;;;;;5091273;28;20044;-57
2021/10/17 07:33:49;;;;;;;9.75;4.78;;;;;;;;;;5087209;28;20048;-56
2021/10/17 07:36:16;;;;;;;12.20;5.72;;;;;;;;;;5090154;28;20044;-56
2021/10/17 07:38:49;;;;;;;12.68;5.32;;;;;;;;;;5087223;28;20068;-56
2021/10/17 07:41:16;;;;;;;13.52;4.80;;;;;;;;;;5088949;28;20102;-56
2021/10/17 07:43:42;;;;;;;10.13;5.35;;;;;;;;;;5089263;28;20040;-56
2021/10/17 07:46:08;;;;;;;19.50;6.13;;;;;;;;;;5088873;28;20410;-56
2021/10/17 07:48:38;;;;;;;11.40;4.57;;;;;;;;;;5085042;28;20076;-56
2021/10/17 07:51:05;;;;;;;10.10;4.25;;;;;;;;;;5092605;28;20044;-56
2021/10/17 07:53:32;;;;;;;15.85;5.38;;;;;;;;;;5087500;28;20571;-56
2021/10/17 07:55:59;;;;;;;12.30;6.22;;;;;;;;;;5077441;28;20079;-56
2021/10/17 07:58:29;;;;;;;14.07;4.55;;;;;;;;;;5086145;28;20044;-56
2021/10/17 08:00:56;;;;;;;12.20;6.05;;;;;;;;;;5070905;28;20036;-56
2021/10/17 08:03:34;;;;;;;13.55;5.85;;;;;;;;;;5085939;28;20051;-56
2021/10/17 08:06:11;;;;;;;14.48;4.47;;;;;;;;;;5086931;28;20076;-56
2021/10/17 08:08:37;;;;;;;10.50;4.72;;;;;;;;;;5087297;28;20070;-56
2021/10/17 08:11:06;;;;;;;16.67;5.95;;;;;;;;;;5108221;27;20048;-56
2021/10/17 08:13:33;;;;;;;11.98;5.93;;;;;;;;;;5090253;28;20428;-56
2021/10/17 08:16:01;;;;;;;14.63;7.03;;;;;;;;;;5088759;28;20097;-57
2021/10/17 08:18:34;;;;;;;11.60;4.88;;;;;;;;;;5086347;28;20127;-56
2021/10/17 08:21:03;;;;;;;14.38;5.80;;;;;;;;;;5086392;28;20086;-56
2021/10/17 08:23:31;;;;;;;15.90;5.22;;;;;;;;;;5089645;28;20052;-56
2021/10/17 08:25:57;;;;;;;19.52;5.38;;;;;;;;;;5081254;28;20402;-56
2021/10/17 08:28:23;;;;;;;17.02;6.32;;;;;;;;;;5076259;28;20091;-56
2021/10/17 08:30:58;;;;;;;15.10;6.20;;;;;;;;;;5080840;28;20040;-54
2021/10/17 08:33:26;;;;;;;13.52;5.95;;;;;;;;;;5085431;28;20140;-54
2021/10/17 08:35:53;;;;;;;13.75;5.55;;;;;;;;;;5084215;28;20070;-54
2021/10/17 08:38:19;;;;;;;13.40;6.38;;;;;;;;;;5084437;28;20044;-54
2021/10/17 08:40:52;;;;;;;15.55;6.82;;;;;;;;;;5079577;28;20076;-55
2021/10/17 08:43:27;;;;;;;13.30;5.90;;;;;;;;;;5086884;28;20048;-55
2021/10/17 08:46:19;;;;;;;14.98;5.72;;;;;;;;;;5086781;28;20086;-56
2021/10/17 08:48:54;;;;;;;13.10;6.43;;;;;;;;;;5083131;28;20411;-54
2021/10/17 08:51:22;;;;;;;15.18;6.78;;;;;;;;;;5078498;28;20079;-55
2021/10/17 08:53:55;;;;;;;13.35;6.07;;;;;;;;;;5073449;28;20500;-55
2021/10/17 08:56:25;;;;;;;13.50;6.75;;;;;;;;;;5074413;28;20090;-55
2021/10/17 08:58:51;;;;;;;12.52;6.18;;;;;;;;;;5087644;28;20420;-56
2021/10/17 09:01:31;;;;;;;13.13;5.78;;;;;;;;;;5091191;28;20044;-55
2021/10/17 09:03:58;;;;;;;14.70;5.72;;;;;;;;;;5085349;28;20506;-54
2021/10/17 09:06:46;;;;;;;14.18;5.68;;;;;;;;;;5083798;28;20040;-54
2021/10/17 09:09:18;;;;;;;15.32;5.93;;;;;;;;;;5087170;28;20134;-55
2021/10/17 09:11:52;;;;;;;14.27;6.95;;;;;;;;;;5074595;28;20423;-54
2021/10/17 09:14:23;;;;;;;12.55;6.28;;;;;;;;;;5086658;28;20052;-55
2021/10/17 09:16:50;;;;;;;10.55;5.22;;;;;;;;;;5084590;28;20063;-55
2021/10/17 09:19:16;;;;;;;11.65;6.75;;;;;;;;;;5086271;28;20055;-55
2021/10/17 09:21:55;;;;;;;14.50;6.43;;;;;;;;;;5083589;28;20082;-54
2021/10/17 09:24:25;;;;;;;11.85;6.25;;;;;;;;;;5084184;28;20066;-54
2021/10/17 09:27:10;;;;;;;15.60;6.55;;;;;;;;;;5087422;28;20163;-54
2021/10/17 09:29:37;;;;;;;13.98;6.93;;;;;;;;;;5084847;28;20051;-55
2021/10/17 09:32:17;;;;;;;13.70;6.28;;;;;;;;;;5087370;28;20090;-55
2021/10/17 09:34:57;;;;;;;18.92;6.28;;;;;;;;;;5086866;28;20048;-55
2021/10/17 09:37:34;;;;;;;13.27;6.05;;;;;;;;;;5085580;28;20076;-54
2021/10/17 09:40:20;;;;;;;15.30;6.10;;;;;;;;;;5086781;28;20043;-54
2021/10/17 09:43:13;;;;;;;16.25;7.38;;;;;;;;;;5076470;28;20068;-55
2021/10/17 09:45:55;;;;;;;;;;;;;;;;;;5078752;28;20040;-54
2021/10/17 09:48:29;;;;;;;15.75;6.38;;;;;;;;;;5080016;28;19999;-54
2021/10/17 09:51:02;;;;;;;13.15;6.05;;;;;;;;;;5077087;28;20048;-54
2021/10/17 09:53:47;;;;;;;19.07;8.17;;;;;;;;;;5085084;28;20174;-55
2021/10/17 09:56:32;;;;;;;18.80;7.55;;;;;;;;;;5085960;28;20096;-55
2021/10/17 09:58:59;;;;;;;18.30;6.85;;;;;;;;;;5075001;28;20099;-55
2021/10/17 10:01:26;;;;;;;13.35;6.28;;;;;;;;;;5077362;28;20553;-55
2021/10/17 10:03:53;;;;;;;11.82;6.72;;;;;;;;;;5082314;28;20047;-55
2021/10/17 10:06:21;;;;;;;15.73;6.60;;;;;;;;;;5075423;28;20052;-55
2021/10/17 10:08:49;;;;;;;17.48;6.22;;;;;;;;;;5077004;28;20109;-55
2021/10/17 10:11:20;;;;;;;17.58;6.70;;;;;;;;;;5086054;28;20050;-55
2021/10/17 10:13:47;;;;;;;17.10;7.43;;;;;;;;;;5080624;28;20075;-55
2021/10/17 10:16:15;;;;;;;15.43;5.53;;;;;;;;;;5086470;28;20039;-56
2021/10/17 10:18:42;;;;;;;15.50;7.05;;;;;;;;;;5083984;28;20044;-55
2021/10/17 10:21:08;;;;;;;17.02;6.25;;;;;;;;;;5085593;28;20062;-55
2021/10/17 10:23:35;;;;;;;12.43;5.80;;;;;;;;;;5086668;28;20040;-55
2021/10/17 10:26:03;;;;;;;12.57;6.10;;;;;;;;;;5087784;28;20055;-55
2021/10/17 10:28:30;;;;;;;14.05;7.22;;;;;;;;;;5084546;28;20534;-55
2021/10/17 10:30:56;;;;;;;14.13;7.25;;;;;;;;;;5084827;28;20040;-54
2021/10/17 10:33:24;;;;;;;15.38;6.15;;;;;;;;;;5083732;28;20047;-55
2021/10/17 10:36:08;;;;;;;17.40;7.20;;;;;;;;;;5078854;28;20072;-54
2021/10/17 10:38:52;;;;;;;12.40;6.07;;;;;;;;;;5081918;28;21020;-54
2021/10/17 10:41:23;;;;;;;16.85;8.73;;;;;;;;;;5082364;28;20534;-54
2021/10/17 10:43:50;;;;;;;15.45;6.82;;;;;;;;;;5083554;28;20051;-55
2021/10/17 10:46:30;;;;;;;11.48;6.13;;;;;;;;;;5088307;28;20044;-55
2021/10/17 10:48:56;;;;;;;14.23;6.25;;;;;;;;;;5086057;28;20161;-55
2021/10/17 10:51:42;;;;;;;16.52;6.60;;;;;;;;;;5081630;28;20052;-55
2021/10/17 10:54:28;;;;;;;15.50;6.43;;;;;;;;;;5082407;28;20095;-56
2021/10/17 10:56:58;;;;;;;20.02;6.30;;;;;;;;;;5084229;28;20082;-55
2021/10/17 10:59:27;;;;;;;14.88;6.60;;;;;;;;;;5081464;28;20125;-55
2021/10/17 11:01:54;;;;;;;12.50;6.50;;;;;;;;;;5081340;28;20134;-55
2021/10/17 11:04:42;;;;;;;12.85;6.35;;;;;;;;;;5085418;28;20093;-55
2021/10/17 11:07:21;;;;;;;14.85;7.85;;;;;;;;;;5083468;28;20088;-56
2021/10/17 11:09:52;;;;;;;16.52;6.85;;;;;;;;;;5078191;28;20507;-56
2021/10/17 11:12:37;;;;;;;18.73;6.88;;;;;;;;;;5077080;28;20052;-55
2021/10/17 11:15:03;;;;;;;14.98;5.82;;;;;;;;;;5083214;28;20602;-56
2021/10/17 11:17:30;;;;;;;15.93;7.22;;;;;;;;;;5086980;28;20086;-55
2021/10/17 11:19:56;;;;;;;13.40;6.80;;;;;;;;;;5082329;28;20419;-56
2021/10/17 11:22:23;;;;;;;14.15;7.05;;;;;;;;;;5085320;28;20487;-55
2021/10/17 11:24:51;;;;;;;14.20;6.53;;;;;;;;;;5084114;28;20070;-56
2021/10/17 11:27:17;;;;;;;11.93;5.75;;;;;;;;;;5080593;28;20056;-55
2021/10/17 11:29:45;;;;;;;15.80;7.25;;;;;;;;;;5083130;28;20043;-55
2021/10/17 11:32:16;;;;;;;14.52;7.88;;;;;;;;;;5077445;28;20130;-55
2021/10/17 11:34:43;;;;;;;17.38;7.38;;;;;;;;;;5085520;28;20048;-55
2021/10/17 11:37:21;;;;;;;16.55;6.05;;;;;;;;;;5086274;28;20052;-55
2021/10/17 11:39:54;;;;;;;13.88;6.72;;;;;;;;;;5083881;28;20083;-55
2021/10/17 11:42:20;;;;;;;12.18;6.20;;;;;;;;;;5088208;28;20051;-55
2021/10/17 11:44:47;;;;;;;13.65;5.97;;;;;;;;;;5090197;28;20143;-55
2021/10/17 11:47:15;;;;;;;14.65;6.82;;;;;;;;;;5079027;28;20044;-56
2021/10/17 11:49:42;;;;;;;13.23;5.68;;;;;;;;;;5088452;28;20181;-56
2021/10/17 11:52:12;;;;;;;19.85;6.25;;;;;;;;;;5086435;28;20110;-55
2021/10/17 11:54:42;;;;;;;14.98;6.25;;;;;;;;;;5085103;28;20087;-55
2021/10/17 11:57:09;;;;;;;17.17;6.07;;;;;;;;;;5085079;28;20496;-55
2021/10/17 11:59:36;;;;;;;14.77;6.72;;;;;;;;;;5075909;28;20050;-55
2021/10/17 12:02:02;;;;;;;12.23;6.85;;;;;;;;;;5074476;28;20063;-55
2021/10/17 12:04:44;;;;;;;18.40;7.90;;;;;;;;;;5077661;28;20143;-55
2021/10/17 12:07:10;;;;;;;12.15;6.25;;;;;;;;;;5079028;28;20083;-55
2021/10/17 12:09:37;;;;;;;15.55;6.20;;;;;;;;;;5078007;28;20075;-54
2021/10/17 12:12:03;;;;;;;17.98;7.63;;;;;;;;;;5079378;28;20048;-55
2021/10/17 12:14:31;;;;;;;16.67;6.90;;;;;;;;;;5112057;27;20507;-55
2021/10/17 12:16:58;;;;;;;10.23;6.38;;;;;;;;;;5107977;27;20056;-54
2021/10/17 12:19:28;;;;;;;11.30;6.07;;;;;;;;;;5078658;28;20052;-55
2021/10/17 12:21:54;;;;;;;13.77;6.35;;;;;;;;;;5080594;28;20095;-55
2021/10/17 12:24:27;;;;;;;12.95;6.75;;;;;;;;;;5087680;28;20052;-55
2021/10/17 12:26:59;;;;;;;14.23;6.32;;;;;;;;;;5091263;28;20067;-55
2021/10/17 12:29:29;;;;;;;13.93;6.65;;;;;;;;;;5092587;28;20042;-56
2021/10/17 12:31:57;;;;;;;16.80;7.63;;;;;;;;;;5092597;28;20090;-55
2021/10/17 12:34:38;;;;;;;16.52;6.50;;;;;;;;;;5094182;28;20461;-55
2021/10/17 12:37:05;;;;;;;14.57;7.30;;;;;;;;;;5093660;28;20059;-54
2021/10/17 12:39:31;;;;;;;14.02;6.78;;;;;;;;;;5091593;28;20079;-55
2021/10/17 12:41:58;;;;;;;14.63;6.32;;;;;;;;;;5092331;28;20067;-55
2021/10/17 12:44:25;;;;;;;8.07;5.03;;;;;;;;;;5091361;28;20066;-54
2021/10/17 12:47:02;;;;;;;17.83;5.88;;;;;;;;;;5091528;28;20452;-56
2021/10/17 12:49:36;;;;;;;20.30;7.43;;;;;;;;;;5090372;28;20102;-55
2021/10/17 12:52:03;;;;;;;7.82;4.43;;;;;;;;;;5092869;28;20075;-54
2021/10/17 12:54:30;;;;;;;9.68;5.35;;;;;;;;;;5091512;28;20056;-56
2021/10/17 12:56:58;;;;;;;14.25;6.00;;;;;;;;;;5092390;28;20043;-55
2021/10/17 12:59:28;;;;;;;16.05;6.10;;;;;;;;;;5090373;28;20075;-55
2021/10/17 13:01:57;;;;;;;17.20;7.05;;;;;;;;;;5091924;28;20101;-55
2021/10/17 13:04:36;;;;;;;13.60;6.95;;;;;;;;;;5091654;28;20113;-55
2021/10/17 13:07:03;;;;;;;22.25;7.50;;;;;;;;;;5091859;28;20567;-54
2021/10/17 13:09:40;;;;;;;16.30;7.93;;;;;;;;;;5091127;28;20121;-55
2021/10/17 13:12:33;;;;;;;10.27;5.18;;;;;;;;;;5091451;28;20075;-55
2021/10/17 13:14:59;;;;;;;13.38;5.60;;;;;;;;;;5026104;28;20099;-56
2021/10/17 13:17:26;;;;;;;11.70;5.90;;;;;;;;;;5026674;28;20143;-56
2021/10/17 13:19:53;;;;;;;14.00;5.82;;;;;;;;;;5028535;28;20073;-55
2021/10/17 13:22:19;;;;;;;17.17;7.40;;;;;;;;;;5025874;28;20072;-54
2021/10/17 13:24:46;;;;;;;16.15;7.50;;;;;;;;;;5015826;28;20136;-55
2021/10/17 13:27:12;;;;;;;15.18;7.10;;;;;;;;;;5014159;28;20076;-55
2021/10/17 13:29:40;;;;;;;21.55;8.23;;;;;;;;;;5017626;28;20049;-55
2021/10/17 13:32:09;;;;;;;19.30;7.28;;;;;;;;;;5017196;28;20080;-55
2021/10/17 13:34:35;;;;;;;14.38;7.05;;;;;;;;;;5017384;28;20058;-54
2021/10/17 13:37:01;;;;;;;14.40;6.65;;;;;;;;;;5018082;28;20042;-55
2021/10/17 13:39:28;;;;;;;18.98;6.97;;;;;;;;;;5013713;28;20140;-55
2021/10/17 13:41:54;;;;;;;16.30;7.50;;;;;;;;;;5015371;28;20050;-55
2021/10/17 13:44:20;;;;;;;16.60;7.80;;;;;;;;;;5018587;28;20050;-55
2021/10/17 13:46:46;;;;;;;17.00;8.50;;;;;;;;;;5018431;28;20081;-55
2021/10/17 13:49:13;;;;;;;15.40;7.88;;;;;;;;;;5019370;28;20049;-54
2021/10/17 13:51:39;;;;;;;22.48;9.60;;;;;;;;;;5055339;28;20048;-54
2021/10/17 13:54:06;;;;;;;24.27;9.27;;;;;;;;;;5089204;28;20084;-55
2021/10/17 13:56:32;;;;;;;32.35;10.50;;;;;;;;;;5086932;28;20055;-55
2021/10/17 13:58:59;;;;;;;18.85;9.23;;;;;;;;;;5094994;28;20404;-55
2021/10/17 14:01:26;;;;;;;23.48;9.60;;;;;;;;;;5090758;28;20059;-54
2021/10/17 14:03:52;;;;;;;22.77;10.88;;;;;;;;;;5089064;28;20048;-54
2021/10/17 14:06:18;;;;;;;27.23;11.38;;;;;;;;;;5089847;28;20075;-54
2021/10/17 14:08:45;;;;;;;20.55;10.23;;;;;;;;;;5092707;28;20048;-55
2021/10/17 14:11:11;;;;;;;24.65;10.90;;;;;;;;;;5090560;28;20123;-55
2021/10/17 14:13:37;;;;;;;22.70;10.15;;;;;;;;;;5090388;28;20044;-56
2021/10/17 14:16:04;;;;;;;19.23;8.95;;;;;;;;;;5090408;28;20066;-56
2021/10/17 14:18:30;;;;;;;20.25;9.65;;;;;;;;;;5090164;28;20488;-55
2021/10/17 14:20:57;;;;;;;18.17;9.38;;;;;;;;;;5092252;28;20568;-55
2021/10/17 14:23:23;;;;;;;25.85;10.02;;;;;;;;;;5090252;28;20072;-56
2021/10/17 14:25:49;;;;;;;19.45;9.80;;;;;;;;;;5090293;28;20123;-55
2021/10/17 14:28:16;;;;;;;22.45;8.15;;;;;;;;;;5089044;28;20403;-54
2021/10/17 14:30:42;;;;;;;19.08;8.70;;;;;;;;;;5090500;28;20039;-55
2021/10/17 14:33:09;;;;;;;19.13;8.80;;;;;;;;;;5090425;28;20051;-56
2021/10/17 14:35:35;;;;;;;21.08;8.48;;;;;;;;;;5085699;28;20054;-55
2021/10/17 14:38:02;;;;;;;16.67;8.57;;;;;;;;;;5085310;28;20111;-54
2021/10/17 14:40:28;;;;;;;20.48;9.43;;;;;;;;;;5086968;28;20556;-55